createdAt,value
2023-02-06T00:01:06.284Z,104059.97
2023-02-06T00:03:33.061Z,104059.38
2023-02-06T00:06:00.459Z,104057.03
2023-02-06T00:08:27.607Z,104057.78
2023-02-06T00:10:54.643Z,104070.88
2023-02-06T00:13:21.830Z,104070.06
2023-02-06T00:15:48.646Z,104070.91
2023-02-06T00:18:15.680Z,104070.91
2023-02-06T00:20:42.544Z,104080.47
2023-02-06T00:23:09.456Z,104081.19
2023-02-06T00:25:37.181Z,104081.16
2023-02-06T00:28:04.474Z,104072.63
2023-02-06T00:30:31.846Z,104073.72
2023-02-06T00:32:59.092Z,104070.31
2023-02-06T00:35:25.950Z,104058.06
2023-02-06T00:37:52.649Z,104050.44
2023-02-06T00:40:19.780Z,104053.13
2023-02-06T00:42:46.831Z,104047.88
2023-02-06T00:45:13.961Z,104056.63
2023-02-06T00:47:41.002Z,104061.75
2023-02-06T00:50:08.068Z,104063.38
2023-02-06T00:52:34.797Z,104063.59
2023-02-06T00:55:01.883Z,104061.75
2023-02-06T00:57:28.674Z,104061.66
2023-02-06T00:59:55.456Z,104053.75
2023-02-06T01:02:22.253Z,104046.94
2023-02-06T01:04:51.270Z,104060.25
2023-02-06T01:07:18.001Z,104057.78
2023-02-06T01:09:45.114Z,104047.34
2023-02-06T01:12:11.884Z,104050.88
2023-02-06T01:14:39.326Z,104045.63
2023-02-06T01:17:06.369Z,104057.81
2023-02-06T01:19:33.320Z,104046.31
2023-02-06T01:22:02.539Z,104037.41
2023-02-06T01:24:29.452Z,104041.00
2023-02-06T01:26:58.505Z,104054.03
2023-02-06T01:29:25.239Z,104048.94
2023-02-06T01:31:52.038Z,104029.69
2023-02-06T01:34:18.836Z,104035.84
2023-02-06T01:36:45.558Z,104027.94
2023-02-06T01:39:12.258Z,104034.84
2023-02-06T01:41:39.381Z,104034.69
2023-02-06T01:44:07.471Z,104032.91
2023-02-06T01:46:34.438Z,104039.81
2023-02-06T01:49:01.870Z,104029.22
2023-02-06T01:51:29.425Z,104023.00
2023-02-06T01:53:59.559Z,104018.66
2023-02-06T01:56:28.236Z,104019.53
2023-02-06T01:58:58.399Z,104026.44
2023-02-06T02:01:27.398Z,104033.28
2023-02-06T02:03:56.943Z,104025.28
2023-02-06T02:06:25.257Z,104022.63
2023-02-06T02:08:53.592Z,104020.84
2023-02-06T02:11:23.385Z,104026.97
2023-02-06T02:13:51.468Z,104026.88
2023-02-06T02:16:21.479Z,104019.94
2023-02-06T02:18:51.421Z,104017.41
2023-02-06T02:21:21.720Z,104015.66
2023-02-06T02:23:51.545Z,104012.13
2023-02-06T02:26:22.283Z,104027.81
2023-02-06T02:28:51.980Z,104027.81
2023-02-06T02:31:21.836Z,104020.81
2023-02-06T02:33:51.700Z,104013.91
2023-02-06T02:36:21.525Z,104019.19
2023-02-06T02:38:48.566Z,104024.38
2023-02-06T02:41:15.731Z,104013.00
2023-02-06T02:43:44.103Z,104010.38
2023-02-06T02:46:11.278Z,104014.75
2023-02-06T02:48:42.869Z,104013.03
2023-02-06T02:51:10.462Z,104006.16
2023-02-06T02:53:37.847Z,104000.91
2023-02-06T02:56:14.160Z,103999.19
2023-02-06T02:58:41.083Z,103995.84
2023-02-06T03:01:12.054Z,103994.91
2023-02-06T03:03:41.010Z,103999.28
2023-02-06T03:06:10.913Z,103986.25
2023-02-06T03:08:46.395Z,103997.59
2023-02-06T03:11:15.434Z,103995.84
2023-02-06T03:13:45.517Z,103974.06
2023-02-06T03:16:14.083Z,103981.97
2023-02-06T03:18:44.259Z,103979.34
2023-02-06T03:21:13.995Z,103982.78
2023-02-06T03:23:42.746Z,103970.53
2023-02-06T03:26:10.911Z,103962.69
2023-02-06T03:28:40.326Z,103962.69
2023-02-06T03:31:09.649Z,103952.13
2023-02-06T03:33:40.370Z,103968.69
2023-02-06T03:36:10.190Z,103966.19
2023-02-06T03:38:37.313Z,103951.56
2023-02-06T03:41:05.391Z,103967.31
2023-02-06T03:43:32.426Z,103969.16
2023-02-06T03:46:02.203Z,103964.03
2023-02-06T03:48:29.288Z,103958.78
2023-02-06T03:50:58.840Z,103945.75
2023-02-06T03:53:26.402Z,103938.00
2023-02-06T03:55:57.018Z,103951.22
2023-02-06T03:58:24.789Z,103951.25
2023-02-06T04:00:54.802Z,103950.41
2023-02-06T04:03:22.992Z,103947.00
2023-02-06T04:05:49.794Z,103961.91
2023-02-06T04:08:16.566Z,103965.38
2023-02-06T04:10:43.400Z,103954.00
2023-02-06T04:13:10.111Z,103958.38
2023-02-06T04:15:37.287Z,103949.72
2023-02-06T04:18:05.881Z,103950.56
2023-02-06T04:20:33.176Z,103958.38
2023-02-06T04:23:00.450Z,103963.66
2023-02-06T04:25:27.480Z,103964.56
2023-02-06T04:27:54.353Z,103960.31
2023-02-06T04:30:21.290Z,103952.47
2023-02-06T04:32:48.075Z,103948.94
2023-02-06T04:35:14.881Z,103949.75
2023-02-06T04:37:41.614Z,103959.47
2023-02-06T04:40:09.105Z,103959.41
2023-02-06T04:42:36.261Z,103961.91
2023-02-06T04:45:03.479Z,103959.28
2023-02-06T04:47:30.424Z,103954.09
2023-02-06T04:49:57.100Z,103953.19
2023-02-06T04:52:24.124Z,103943.44
2023-02-06T04:54:51.182Z,103944.38
2023-02-06T04:57:18.327Z,103941.69
2023-02-06T04:59:45.640Z,103919.00
2023-02-06T05:02:12.514Z,103920.69
2023-02-06T05:04:39.488Z,103917.19
2023-02-06T05:07:06.606Z,103919.81
2023-02-06T05:09:33.619Z,103931.03
2023-02-06T05:12:00.451Z,103922.31
2023-02-06T05:14:27.541Z,103918.75
2023-02-06T05:16:54.617Z,103925.75
2023-02-06T05:19:21.361Z,103917.88
2023-02-06T05:21:48.076Z,103918.75
2023-02-06T05:24:15.131Z,103913.50
2023-02-06T05:26:42.175Z,103913.50
2023-02-06T05:29:09.443Z,103917.03
2023-02-06T05:31:36.658Z,103903.06
2023-02-06T05:34:03.530Z,103904.81
2023-02-06T05:36:30.461Z,103905.69
2023-02-06T05:38:57.624Z,103911.06
2023-02-06T05:41:24.340Z,103912.81
2023-02-06T05:43:51.425Z,103910.16
2023-02-06T05:46:19.629Z,103906.53
2023-02-06T05:48:46.392Z,103896.00
2023-02-06T05:51:13.072Z,103901.31
2023-02-06T05:53:39.796Z,103901.25
2023-02-06T05:56:06.734Z,103896.78
2023-02-06T05:58:33.628Z,103897.59
2023-02-06T06:01:00.425Z,103891.31
2023-02-06T06:03:27.285Z,103900.03
2023-02-06T06:05:54.419Z,103893.03
2023-02-06T06:08:21.677Z,103882.56
2023-02-06T06:10:50.329Z,103877.28
2023-02-06T06:13:17.026Z,103864.16
2023-02-06T06:15:43.868Z,103879.84
2023-02-06T06:18:11.287Z,103891.22
2023-02-06T06:20:38.021Z,103885.13
2023-02-06T06:23:04.803Z,103882.69
2023-02-06T06:25:31.520Z,103887.97
2023-02-06T06:27:58.330Z,103890.66
2023-02-06T06:30:25.043Z,103889.78
2023-02-06T06:32:51.971Z,103879.38
2023-02-06T06:35:18.859Z,103878.63
2023-02-06T06:37:45.560Z,103879.56
2023-02-06T06:40:12.510Z,103878.75
2023-02-06T06:42:39.336Z,103874.47
2023-02-06T06:45:06.789Z,103872.84
2023-02-06T06:47:36.342Z,103863.38
2023-02-06T06:50:03.060Z,103866.97
2023-02-06T06:52:30.302Z,103866.19
2023-02-06T06:54:57.114Z,103875.72
2023-02-06T06:57:24.004Z,103872.19
2023-02-06T06:59:50.941Z,103864.47
2023-02-06T07:02:17.981Z,103861.03
2023-02-06T07:04:44.726Z,103863.75
2023-02-06T07:07:11.489Z,103866.41
2023-02-06T07:09:38.403Z,103870.91
2023-02-06T07:12:06.035Z,103868.44
2023-02-06T07:14:32.789Z,103863.31
2023-02-06T07:17:01.062Z,103855.47
2023-02-06T07:19:28.075Z,103843.28
2023-02-06T07:21:54.899Z,103850.22
2023-02-06T07:24:21.635Z,103845.03
2023-02-06T07:26:48.847Z,103851.13
2023-02-06T07:29:15.568Z,103856.38
2023-02-06T07:31:42.705Z,103852.97
2023-02-06T07:34:09.687Z,103848.63
2023-02-06T07:36:38.171Z,103846.94
2023-02-06T07:39:05.251Z,103841.69
2023-02-06T07:41:32.001Z,103830.34
2023-02-06T07:43:59.111Z,103834.06
2023-02-06T07:46:26.062Z,103831.38
2023-02-06T07:48:53.045Z,103825.16
2023-02-06T07:51:23.166Z,103827.78
2023-02-06T07:53:50.202Z,103825.16
2023-02-06T07:56:18.106Z,103832.94
2023-02-06T07:58:45.331Z,103836.31
2023-02-06T08:01:12.203Z,103837.34
2023-02-06T08:03:39.005Z,103832.19
2023-02-06T08:06:11.106Z,103826.19
2023-02-06T08:08:38.305Z,103828.81
2023-02-06T08:11:06.806Z,103831.34
2023-02-06T08:13:34.104Z,103820.78
2023-02-06T08:16:07.053Z,103826.97
2023-02-06T08:18:34.215Z,103835.81
2023-02-06T08:21:02.691Z,103834.06
2023-02-06T08:23:29.580Z,103837.56
2023-02-06T08:25:59.555Z,103834.06
2023-02-06T08:28:26.561Z,103839.28
2023-02-06T08:30:53.437Z,103834.13
2023-02-06T08:33:20.485Z,103834.06
2023-02-06T08:35:47.445Z,103839.97
2023-02-06T08:38:14.337Z,103839.06
2023-02-06T08:40:41.101Z,103838.94
2023-02-06T08:43:08.089Z,103833.78
2023-02-06T08:45:35.381Z,103842.53
2023-02-06T08:48:02.325Z,103839.03
2023-02-06T08:50:29.221Z,103839.03
2023-02-06T08:52:56.070Z,103846.75
2023-02-06T08:55:25.168Z,103840.47
2023-02-06T08:57:53.041Z,103841.34
2023-02-06T09:00:20.856Z,103854.44
2023-02-06T09:02:48.233Z,103845.50
2023-02-06T09:05:15.621Z,103851.69
2023-02-06T09:07:42.642Z,103858.53
2023-02-06T09:10:18.963Z,103861.09
2023-02-06T09:12:53.930Z,103862.06
2023-02-06T09:15:20.787Z,103855.91
2023-02-06T09:17:48.176Z,103852.50
2023-02-06T09:20:15.376Z,103849.03
2023-02-06T09:22:44.715Z,103855.22
2023-02-06T09:25:12.205Z,103852.59
2023-02-06T09:27:39.471Z,103847.19
2023-02-06T09:30:06.467Z,103856.72
2023-02-06T09:32:33.418Z,103853.97
2023-02-06T09:35:01.438Z,103842.69
2023-02-06T09:37:28.299Z,103849.75
2023-02-06T09:39:55.149Z,103847.94
2023-02-06T09:42:30.500Z,103843.56
2023-02-06T09:45:03.340Z,103847.00
2023-02-06T09:47:32.342Z,103840.81
2023-02-06T09:50:05.088Z,103844.09
2023-02-06T09:52:34.952Z,103841.19
2023-02-06T09:55:04.742Z,103841.88
2023-02-06T09:57:34.931Z,103845.16
2023-02-06T10:00:04.839Z,103854.47
2023-02-06T10:02:34.770Z,103846.44
2023-02-06T10:05:08.073Z,103853.16
2023-02-06T10:07:47.284Z,103855.56
2023-02-06T10:10:17.216Z,103854.53
2023-02-06T10:12:47.082Z,103851.66
2023-02-06T10:15:17.119Z,103858.41
2023-02-06T10:17:49.985Z,103864.19
2023-02-06T10:20:20.064Z,103866.66
2023-02-06T10:22:51.378Z,103862.84
2023-02-06T10:25:22.999Z,103856.59
2023-02-06T10:27:54.102Z,103870.31
2023-02-06T10:30:29.406Z,103870.13
2023-02-06T10:33:03.362Z,103859.41
2023-02-06T10:35:35.510Z,103853.97
2023-02-06T10:38:06.304Z,103850.38
2023-02-06T10:40:33.580Z,103854.69
2023-02-06T10:43:03.753Z,103852.13
2023-02-06T10:45:31.915Z,103853.72
2023-02-06T10:48:02.046Z,103847.59
2023-02-06T10:50:30.967Z,103845.63
2023-02-06T10:53:04.472Z,103843.88
2023-02-06T10:55:38.140Z,103841.94
2023-02-06T10:58:13.565Z,103843.59
2023-02-06T11:00:41.270Z,103841.75
2023-02-06T11:03:13.383Z,103834.50
2023-02-06T11:05:41.599Z,103829.19
2023-02-06T11:08:11.536Z,103833.47
2023-02-06T11:10:38.919Z,103828.13
2023-02-06T11:13:09.350Z,103822.78
2023-02-06T11:15:39.607Z,103823.53
2023-02-06T11:18:11.331Z,103819.06
2023-02-06T11:20:39.060Z,103811.91
2023-02-06T11:23:09.417Z,103816.09
2023-02-06T11:25:36.659Z,103803.75
2023-02-06T11:28:06.196Z,103792.25
2023-02-06T11:30:37.044Z,103787.72
2023-02-06T11:33:07.199Z,103778.75
2023-02-06T11:35:35.399Z,103781.16
2023-02-06T11:38:05.661Z,103779.25
2023-02-06T11:40:32.715Z,103779.06
2023-02-06T11:43:03.126Z,103779.75
2023-02-06T11:45:31.677Z,103775.06
2023-02-06T11:47:59.372Z,103771.25
2023-02-06T11:50:29.152Z,103766.78
2023-02-06T11:52:59.159Z,103761.38
2023-02-06T11:55:29.652Z,103760.22
2023-02-06T11:57:59.661Z,103755.59
2023-02-06T12:00:26.696Z,103749.34
2023-02-06T12:02:55.307Z,103752.69
2023-02-06T12:05:25.505Z,103752.44
2023-02-06T12:07:55.495Z,103738.16
2023-02-06T12:10:24.226Z,103742.31
2023-02-06T12:12:53.963Z,103738.53
2023-02-06T12:15:44.738Z,103735.78
2023-02-06T12:18:14.684Z,103733.81
2023-02-06T12:20:44.562Z,103715.34
2023-02-06T12:23:14.396Z,103723.06
2023-02-06T12:25:43.371Z,103722.88
2023-02-06T12:28:13.232Z,103723.47
2023-02-06T12:30:44.344Z,103724.34
2023-02-06T12:33:11.575Z,103712.63
2023-02-06T12:35:41.518Z,103708.06
2023-02-06T12:38:11.532Z,103704.44
2023-02-06T12:40:38.826Z,103707.91
2023-02-06T12:43:08.675Z,103700.78
2023-02-06T12:45:38.828Z,103691.97
2023-02-06T12:48:11.187Z,103691.72
2023-02-06T12:50:43.165Z,103687.91
2023-02-06T12:53:15.539Z,103671.97
2023-02-06T12:55:44.907Z,103670.94
2023-02-06T12:58:15.214Z,103668.06
2023-02-06T13:00:45.952Z,103667.91
2023-02-06T13:03:16.175Z,103672.16
2023-02-06T13:05:47.056Z,103664.94
2023-02-06T13:08:16.872Z,103656.09
2023-02-06T13:10:43.862Z,103659.34
2023-02-06T13:13:13.839Z,103648.66
2023-02-06T13:15:41.758Z,103646.69
2023-02-06T13:18:12.246Z,103645.50
2023-02-06T13:21:02.121Z,103638.34
2023-02-06T13:23:29.074Z,103642.53
2023-02-06T13:25:56.051Z,103637.09
2023-02-06T13:28:23.455Z,103633.34
2023-02-06T13:30:59.235Z,103632.34
2023-02-06T13:33:37.562Z,103619.16
2023-02-06T13:36:06.682Z,103621.69
2023-02-06T13:38:33.982Z,103612.84
2023-02-06T13:41:03.801Z,103601.38
2023-02-06T13:43:31.856Z,103610.88
2023-02-06T13:46:01.044Z,103609.03
2023-02-06T13:48:36.724Z,103607.16
2023-02-06T13:51:06.628Z,103597.47
2023-02-06T13:53:36.722Z,103596.34
2023-02-06T13:56:09.275Z,103598.81
2023-02-06T13:58:37.177Z,103596.16
2023-02-06T14:01:05.070Z,103600.50
2023-02-06T14:03:33.860Z,103597.78
2023-02-06T14:06:01.026Z,103578.38
2023-02-06T14:08:30.989Z,103582.63
2023-02-06T14:11:06.554Z,103577.19
2023-02-06T14:13:40.139Z,103578.63
2023-02-06T14:16:10.066Z,103564.22
2023-02-06T14:18:38.589Z,103559.81
2023-02-06T14:21:08.580Z,103564.22
2023-02-06T14:23:38.546Z,103561.50
2023-02-06T14:26:08.676Z,103559.72
2023-02-06T14:28:38.635Z,103564.88
2023-02-06T14:31:06.868Z,103557.75
2023-02-06T14:33:37.604Z,103561.16
2023-02-06T14:36:05.396Z,103554.09
2023-02-06T14:38:32.533Z,103554.84
2023-02-06T14:41:02.055Z,103552.03
2023-02-06T14:43:31.882Z,103546.75
2023-02-06T14:46:07.643Z,103548.34
2023-02-06T14:48:35.480Z,103541.38
2023-02-06T14:51:02.343Z,103541.38
2023-02-06T14:53:32.246Z,103536.94
2023-02-06T14:56:02.237Z,103543.72
2023-02-06T14:58:29.957Z,103547.22
2023-02-06T15:00:57.491Z,103548.06
2023-02-06T15:03:28.631Z,103543.56
2023-02-06T15:06:00.921Z,103540.09
2023-02-06T15:08:27.820Z,103535.81
2023-02-06T15:11:00.582Z,103532.34
2023-02-06T15:13:32.358Z,103536.78
2023-02-06T15:15:59.285Z,103529.81
2023-02-06T15:18:26.259Z,103527.19
2023-02-06T15:20:55.141Z,103527.19
2023-02-06T15:23:25.220Z,103527.06
2023-02-06T15:25:55.141Z,103519.06
2023-02-06T15:28:27.707Z,103523.50
2023-02-06T15:30:56.229Z,103510.41
2023-02-06T15:33:24.924Z,103505.22
2023-02-06T15:35:53.341Z,103502.03
2023-02-06T15:38:21.555Z,103504.66
2023-02-06T15:40:51.683Z,103504.56
2023-02-06T15:43:20.307Z,103506.25
2023-02-06T15:45:48.355Z,103495.81
2023-02-06T15:48:18.770Z,103494.03
2023-02-06T15:50:48.923Z,103485.25
2023-02-06T15:53:17.269Z,103491.63
2023-02-06T15:55:51.327Z,103498.91
2023-02-06T15:58:18.367Z,103501.53
2023-02-06T16:00:50.236Z,103499.19
2023-02-06T16:03:19.011Z,103493.97
2023-02-06T16:05:45.874Z,103501.31
2023-02-06T16:08:23.779Z,103496.31
2023-02-06T16:10:53.737Z,103493.13
2023-02-06T16:13:23.545Z,103485.56
2023-02-06T16:15:53.423Z,103483.97
2023-02-06T16:18:23.486Z,103484.16
2023-02-06T16:20:50.566Z,103493.94
2023-02-06T16:23:18.779Z,103487.03
2023-02-06T16:25:47.329Z,103483.59
2023-02-06T16:28:17.300Z,103475.84
2023-02-06T16:30:53.601Z,103471.50
2023-02-06T16:33:23.542Z,103473.50
2023-02-06T16:35:50.297Z,103470.09
2023-02-06T16:38:17.137Z,103469.34
2023-02-06T16:40:43.936Z,103467.72
2023-02-06T16:43:12.389Z,103466.06
2023-02-06T16:45:39.676Z,103462.66
2023-02-06T16:48:11.560Z,103459.25
2023-02-06T16:50:40.116Z,103466.41
2023-02-06T16:53:11.353Z,103469.13
2023-02-06T16:55:38.268Z,103473.81
2023-02-06T16:58:05.672Z,103470.50
2023-02-06T17:00:32.978Z,103480.19
2023-02-06T17:02:59.960Z,103479.41
2023-02-06T17:05:27.460Z,103481.31
2023-02-06T17:07:55.300Z,103484.09
2023-02-06T17:10:24.755Z,103477.22
2023-02-06T17:12:54.303Z,103477.38
2023-02-06T17:15:21.542Z,103481.91
2023-02-06T17:17:48.497Z,103479.44
2023-02-06T17:20:18.581Z,103474.44
2023-02-06T17:22:45.747Z,103470.28
2023-02-06T17:25:12.755Z,103468.84
2023-02-06T17:27:39.931Z,103468.19
2023-02-06T17:30:07.116Z,103467.41
2023-02-06T17:32:34.016Z,103466.72
2023-02-06T17:35:02.764Z,103466.81
2023-02-06T17:37:29.577Z,103468.69
2023-02-06T17:39:56.488Z,103474.88
2023-02-06T17:42:24.467Z,103470.63
2023-02-06T17:44:51.548Z,103463.91
2023-02-06T17:47:18.371Z,103468.44
2023-02-06T17:49:47.244Z,103466.81
2023-02-06T17:52:14.774Z,103465.19
2023-02-06T17:54:41.795Z,103470.69
2023-02-06T17:57:08.841Z,103470.78
2023-02-06T17:59:35.759Z,103472.63
2023-02-06T18:02:02.789Z,103459.56
2023-02-06T18:04:31.855Z,103465.69
2023-02-06T18:06:59.165Z,103453.53
2023-02-06T18:09:26.066Z,103461.44
2023-02-06T18:11:53.121Z,103449.19
2023-02-06T18:14:21.032Z,103446.69
2023-02-06T18:16:48.289Z,103451.09
2023-02-06T18:19:15.931Z,103457.34
2023-02-06T18:21:42.923Z,103446.91
2023-02-06T18:24:09.702Z,103447.94
2023-02-06T18:26:37.001Z,103437.66
2023-02-06T18:29:05.261Z,103442.94
2023-02-06T18:31:34.702Z,103441.22
2023-02-06T18:34:03.385Z,103438.78
2023-02-06T18:36:30.581Z,103433.66
2023-02-06T18:38:57.580Z,103439.78
2023-02-06T18:41:27.641Z,103440.81
2023-02-06T18:43:54.792Z,103434.78
2023-02-06T18:46:21.591Z,103433.06
2023-02-06T18:48:48.395Z,103435.69
2023-02-06T18:51:15.476Z,103442.66
2023-02-06T18:53:42.756Z,103444.38
2023-02-06T18:56:09.666Z,103452.91
2023-02-06T18:58:36.594Z,103452.78
2023-02-06T19:01:10.367Z,103450.03
2023-02-06T19:03:37.251Z,103460.50
2023-02-06T19:06:10.225Z,103471.84
2023-02-06T19:08:37.011Z,103467.53
2023-02-06T19:11:03.926Z,103471.06
2023-02-06T19:13:31.085Z,103467.78
2023-02-06T19:16:01.043Z,103468.56
2023-02-06T19:18:37.603Z,103467.69
2023-02-06T19:21:07.175Z,103472.78
2023-02-06T19:23:36.305Z,103470.94
2023-02-06T19:26:05.251Z,103472.72
2023-02-06T19:28:32.289Z,103467.59
2023-02-06T19:31:02.463Z,103464.13
2023-02-06T19:33:30.624Z,103466.00
2023-02-06T19:35:57.422Z,103462.59
2023-02-06T19:38:24.300Z,103470.66
2023-02-06T19:40:53.260Z,103461.97
2023-02-06T19:43:20.252Z,103466.31
2023-02-06T19:45:47.163Z,103461.72
2023-02-06T19:48:14.257Z,103456.41
2023-02-06T19:50:42.181Z,103464.28
2023-02-06T19:53:09.397Z,103466.06
2023-02-06T19:55:36.646Z,103467.00
2023-02-06T19:58:03.815Z,103468.69
2023-02-06T20:00:30.619Z,103467.00
2023-02-06T20:02:57.828Z,103464.63
2023-02-06T20:05:27.240Z,103463.94
2023-02-06T20:07:54.630Z,103467.66
2023-02-06T20:10:22.023Z,103461.81
2023-02-06T20:12:48.777Z,103460.28
2023-02-06T20:15:15.972Z,103457.97
2023-02-06T20:17:43.148Z,103459.88
2023-02-06T20:20:10.559Z,103466.25
2023-02-06T20:22:37.400Z,103457.59
2023-02-06T20:25:04.530Z,103449.13
2023-02-06T20:27:31.409Z,103451.03
2023-02-06T20:29:58.214Z,103449.41
2023-02-06T20:32:24.996Z,103440.00
2023-02-06T20:34:51.854Z,103439.28
2023-02-06T20:37:18.999Z,103446.50
2023-02-06T20:39:45.886Z,103451.06
2023-02-06T20:42:12.800Z,103453.94
2023-02-06T20:44:39.795Z,103454.84
2023-02-06T20:47:06.851Z,103451.44
2023-02-06T20:49:33.646Z,103443.66
2023-02-06T20:52:03.454Z,103444.59
2023-02-06T20:54:31.058Z,103443.81
2023-02-06T20:57:00.474Z,103447.28
2023-02-06T20:59:28.067Z,103445.66
2023-02-06T21:01:54.885Z,103441.34
2023-02-06T21:04:21.789Z,103446.59
2023-02-06T21:06:50.311Z,103444.97
2023-02-06T21:09:17.734Z,103452.91
2023-02-06T21:11:46.172Z,103455.53
2023-02-06T21:14:13.520Z,103449.53
2023-02-06T21:16:40.490Z,103452.91
2023-02-06T21:19:08.708Z,103458.31
2023-02-06T21:21:35.471Z,103454.91
2023-02-06T21:24:02.323Z,103455.94
2023-02-06T21:26:29.513Z,103449.13
2023-02-06T21:28:58.542Z,103448.34
2023-02-06T21:31:34.739Z,103450.91
2023-02-06T21:34:07.338Z,103457.09
2023-02-06T21:36:35.074Z,103460.63
2023-02-06T21:39:01.827Z,103450.22
2023-02-06T21:41:28.545Z,103453.78
2023-02-06T21:43:55.395Z,103450.34
2023-02-06T21:46:22.185Z,103451.16
2023-02-06T21:48:52.810Z,103446.88
2023-02-06T21:51:20.300Z,103446.88
2023-02-06T21:53:47.454Z,103445.19
2023-02-06T21:56:16.861Z,103448.66
2023-02-06T21:58:43.790Z,103445.03
2023-02-06T22:01:13.756Z,103447.03
2023-02-06T22:03:40.494Z,103446.19
2023-02-06T22:06:10.581Z,103450.59
2023-02-06T22:08:39.751Z,103444.66
2023-02-06T22:11:09.796Z,103458.84
2023-02-06T22:13:36.902Z,103457.22
2023-02-06T22:16:03.702Z,103452.03
2023-02-06T22:18:30.532Z,103460.91
2023-02-06T22:21:01.057Z,103459.38
2023-02-06T22:23:28.110Z,103463.91
2023-02-06T22:25:54.982Z,103462.28
2023-02-06T22:28:21.812Z,103463.38
2023-02-06T22:30:49.295Z,103453.09
2023-02-06T22:33:16.186Z,103458.47
2023-02-06T22:35:43.239Z,103460.41
2023-02-06T22:38:10.014Z,103457.91
2023-02-06T22:40:36.766Z,103451.91
2023-02-06T22:43:03.731Z,103457.09
2023-02-06T22:45:30.880Z,103458.84
2023-02-06T22:47:57.731Z,103460.69
2023-02-06T22:50:24.878Z,103474.16
2023-02-06T22:52:54.955Z,103461.16
2023-02-06T22:55:21.840Z,103468.31
2023-02-06T22:57:50.351Z,103470.16
2023-02-06T23:00:18.624Z,103464.22
2023-02-06T23:02:46.044Z,103456.34
2023-02-06T23:05:12.982Z,103458.19
2023-02-06T23:07:40.086Z,103453.88
2023-02-06T23:10:07.626Z,103449.56
2023-02-06T23:12:35.400Z,103459.25
2023-02-06T23:15:02.589Z,103452.41
2023-02-06T23:17:29.569Z,103447.28
2023-02-06T23:19:56.557Z,103448.19
2023-02-06T23:22:23.455Z,103445.66
2023-02-06T23:24:50.957Z,103451.03
2023-02-06T23:27:20.005Z,103444.16
2023-02-06T23:29:47.248Z,103453.75
2023-02-06T23:32:14.395Z,103454.66
2023-02-06T23:34:41.407Z,103449.53
2023-02-06T23:37:08.442Z,103453.09
2023-02-06T23:39:35.475Z,103449.84
2023-02-06T23:42:02.660Z,103447.13
2023-02-06T23:44:29.585Z,103455.94
2023-02-06T23:46:56.565Z,103441.34
2023-02-06T23:49:23.476Z,103431.81
2023-02-06T23:51:50.427Z,103437.00
2023-02-06T23:54:17.367Z,103443.00
2023-02-06T23:56:44.287Z,103446.44
2023-02-06T23:59:12.660Z,103445.72
